Time;durP1;ratioP1;P1;durP2;ratioP2;P2;SDS_P1;SDS_P2;PMS_P1;PMS_P2;Temp;Humidity;BMP_temperature;BMP_pressure;BME280_temperature;BME280_humidity;BME280_pressure;Samples;Min_cycle;Max_cycle;Signal;HPM_P1;HPM_P2
2022/09/11 10:59:03;;;;;;;;;;;16.00;50.00;;;;;;6174731;23;19927;-70
2022/09/11 11:01:31;;;;;;;;;;;16.00;50.00;;;;;;6179283;23;19919;-70
2022/09/11 11:03:58;;;;;;;;;;;16.00;50.40;;;;;;6180898;23;19919;-70
2022/09/11 11:06:33;;;;;;;;;;;16.00;51.00;;;;;;6181089;23;19919;-69
2022/09/11 11:09:00;;;;;;;;;;;16.00;50.90;;;;;;6154539;23;19904;-69
2022/09/11 11:11:45;;;;;;;;;;;15.90;50.10;;;;;;6181824;23;19908;-70
2022/09/11 11:14:21;;;;;;;;;;;15.90;50.10;;;;;;6181322;23;19915;-71
2022/09/11 11:16:48;;;;;;;;;;;15.90;50.30;;;;;;6181415;23;19915;-70
2022/09/11 11:19:26;;;;;;;;;;;15.80;50.30;;;;;;6181460;23;19914;-70
2022/09/11 11:21:57;;;;;;;;;;;15.80;51.10;;;;;;6178826;23;20440;-70
2022/09/11 11:24:24;;;;;;;;;;;15.70;50.80;;;;;;6180423;23;20331;-71
2022/09/11 11:27:03;;;;;;;;;;;15.70;51.40;;;;;;6179856;23;19908;-71
2022/09/11 11:29:30;;;;;;;;;;;15.60;51.10;;;;;;6180518;23;19912;-71
2022/09/11 11:32:04;;;;;;;;;;;15.60;50.80;;;;;;6180503;23;19970;-71
2022/09/11 11:35:00;;;;;;;;;;;15.60;51.10;;;;;;6154636;23;19908;-71
2022/09/11 11:37:33;;;;;;;;;;;15.60;51.20;;;;;;6129290;23;19909;-71
2022/09/11 11:40:01;;;;;;;;;;;15.50;50.80;;;;;;6182210;23;19904;-71
2022/09/11 11:42:27;;;;;;;;;;;15.50;50.60;;;;;;6182070;23;20197;-71
2022/09/11 11:44:59;;;;;;;;;;;15.50;51.20;;;;;;6181309;23;19959;-70
2022/09/11 11:47:28;;;;;;;;;;;15.40;51.20;;;;;;6182471;23;20328;-70
2022/09/11 11:50:05;;;;;;;;;;;15.40;51.00;;;;;;6182567;23;19904;-70
2022/09/11 11:52:33;;;;;;;;;;;15.30;50.90;;;;;;6181732;23;19908;-71
2022/09/11 11:55:02;;;;;;;;;;;15.30;51.20;;;;;;6182553;23;20319;-70
2022/09/11 11:57:30;;;;;;;;;;;15.30;51.30;;;;;;6156388;23;20275;-72
2022/09/11 11:59:56;;;;;;;;;;;15.20;52.00;;;;;;6156681;23;19916;-70
2022/09/11 12:02:28;;;;;;;;;;;15.20;51.70;;;;;;6183011;23;19983;-69
2022/09/11 12:04:59;;;;;;;;;;;15.10;51.80;;;;;;6156067;23;19916;-68
2022/09/11 12:07:26;;;;;;;;;;;15.10;51.30;;;;;;6156680;23;19915;-70
2022/09/11 12:09:53;;;;;;;;;;;15.00;51.80;;;;;;6179786;23;20213;-69
2022/09/11 12:12:20;;;;;;;;;;;15.00;51.60;;;;;;6181219;23;19997;-71
2022/09/11 12:15:00;;;;;;;;;;;15.00;52.10;;;;;;6153820;23;19908;-69
2022/09/11 12:17:27;;;;;;;;;;;15.00;51.30;;;;;;6156596;23;19915;-70
2022/09/11 12:20:17;;;;;;;;;;;15.00;52.20;;;;;;6155826;23;19908;-70
2022/09/11 12:22:44;;;;;;;;;;;15.00;52.60;;;;;;6162866;23;19904;-70
2022/09/11 12:25:20;;;;;;;;;;;14.90;52.00;;;;;;6181727;23;19912;-70
2022/09/11 12:27:50;;;;;;;;;;;14.90;52.00;;;;;;6181124;23;19904;-72
2022/09/11 12:30:17;;;;;;;;;;;14.80;51.90;;;;;;6181331;23;19908;-68
2022/09/11 12:32:44;;;;;;;;;;;14.80;52.20;;;;;;6180944;23;19908;-70
2022/09/11 12:35:22;;;;;;;;;;;14.80;52.20;;;;;;6180805;23;19904;-71
2022/09/11 12:37:51;;;;;;;;;;;14.70;51.80;;;;;;6155497;23;20547;-72
2022/09/11 12:40:37;;;;;;;;;;;14.70;52.10;;;;;;6182250;23;19904;-70
2022/09/11 12:43:22;;;;;;;;;;;14.70;52.30;;;;;;6156149;23;20239;-71
2022/09/11 12:45:49;;;;;;;;;;;14.70;52.60;;;;;;6181890;23;20274;-71
2022/09/11 12:48:20;;;;;;;;;;;14.70;52.20;;;;;;6181972;23;19987;-68
2022/09/11 12:50:50;;;;;;;;;;;14.70;52.20;;;;;;6155828;23;19915;-71
2022/09/11 12:53:19;;;;;;;;;;;14.70;52.10;;;;;;6155551;23;20247;-71
2022/09/11 12:56:04;;;;;;;;;;;14.60;52.30;;;;;;6155140;23;20339;-72
2022/09/11 12:58:35;;;;;;;;;;;14.60;52.50;;;;;;6157947;23;20407;-72
2022/09/11 13:01:03;;;;;;;;;;;14.50;52.60;;;;;;6183569;23;19920;-72
2022/09/11 13:03:30;;;;;;;;;;;14.50;52.40;;;;;;6158509;23;19912;-72
2022/09/11 13:06:01;;;;;;;;;;;14.50;52.90;;;;;;6133596;23;19904;-72
2022/09/11 13:08:29;;;;;;;;;;;14.50;52.60;;;;;;6158305;23;19905;-72
2022/09/11 13:11:14;;;;;;;;;;;14.40;52.80;;;;;;6158487;23;19951;-72
2022/09/11 13:13:44;;;;;;;;;;;14.50;53.00;;;;;;6185148;23;19915;-72
2022/09/11 13:16:39;;;;;;;;;;;14.40;53.20;;;;;;6184506;23;19919;-72
2022/09/11 13:19:09;;;;;;;;;;;14.30;52.90;;;;;;6153052;23;19912;-72
2022/09/11 13:21:36;;;;;;;;;;;14.30;53.00;;;;;;6183754;23;19904;-72
2022/09/11 13:24:02;;;;;;;;;;;14.30;53.10;;;;;;6184397;23;19918;-72
2022/09/11 13:26:30;;;;;;;;;;;14.30;53.10;;;;;;6185008;23;19978;-72
2022/09/11 13:28:58;;;;;;;;;;;14.30;52.70;;;;;;6158670;23;19908;-72
2022/09/11 13:31:30;;;;;;;;;;;14.30;53.00;;;;;;6158616;23;19951;-72
2022/09/11 13:33:57;;;;;;;;;;;14.30;53.30;;;;;;6184751;23;19919;-72
2022/09/11 13:36:24;;;;;;;;;;;14.20;53.20;;;;;;6158847;23;19912;-72
2022/09/11 13:38:53;;;;;;;;;;;14.20;53.50;;;;;;6185137;23;19991;-72
2022/09/11 13:41:22;;;;;;;;;;;14.20;53.50;;;;;;6159260;23;19920;-72
2022/09/11 13:43:53;;;;;;;;;;;14.20;53.60;;;;;;6185132;23;19916;-72
2022/09/11 13:46:21;;;;;;;;;;;14.10;53.70;;;;;;6184115;23;19976;-72
2022/09/11 13:48:49;;;;;;;;;;;14.10;53.60;;;;;;6158244;23;19905;-72
2022/09/11 13:51:17;;;;;;;;;;;14.10;53.70;;;;;;6133418;23;20343;-72
2022/09/11 13:53:44;;;;;;;;;;;14.10;53.70;;;;;;6184290;23;19950;-72
2022/09/11 13:56:44;;;;;;;;;;;14.00;53.60;;;;;;6184195;23;20322;-72
2022/09/11 13:59:29;;;;;;;;;;;14.00;53.80;;;;;;6155947;23;19917;-72
2022/09/11 14:01:59;;;;;;;;;;;14.00;54.00;;;;;;6184146;23;19912;-72
2022/09/11 14:04:27;;;;;;;;;;;14.00;53.80;;;;;;6158645;23;19958;-72
2022/09/11 14:06:54;;;;;;;;;;;14.00;53.50;;;;;;6157551;23;19976;-72
2022/09/11 14:09:21;;;;;;;;;;;14.00;53.70;;;;;;6157015;23;20342;-72
2022/09/11 14:11:47;;;;;;;;;;;14.00;53.80;;;;;;6184082;23;19911;-72
2022/09/11 14:14:24;;;;;;;;;;;14.00;53.80;;;;;;6184904;23;20228;-72
2022/09/11 14:16:54;;;;;;;;;;;13.90;53.70;;;;;;6158448;23;19908;-72
2022/09/11 14:19:21;;;;;;;;;;;13.90;53.60;;;;;;6157746;23;20276;-73
2022/09/11 14:21:48;;;;;;;;;;;13.80;53.50;;;;;;6157866;23;19904;-72
2022/09/11 14:24:25;;;;;;;;;;;13.80;53.40;;;;;;6158021;23;19912;-71
2022/09/11 14:26:51;;;;;;;;;;;13.80;53.60;;;;;;6183566;23;19910;-72
2022/09/11 14:29:36;;;;;;;;;;;13.80;53.90;;;;;;6156895;23;20312;-73
2022/09/11 14:32:22;;;;;;;;;;;13.80;53.90;;;;;;6184341;23;19911;-72
2022/09/11 14:34:48;;;;;;;;;;;13.80;53.70;;;;;;6184366;23;20393;-72
2022/09/11 14:37:15;;;;;;;;;;;13.70;53.80;;;;;;6183405;23;19909;-72
2022/09/11 14:39:43;;;;;;;;;;;13.70;53.80;;;;;;6183866;23;20311;-72
2022/09/11 14:42:13;;;;;;;;;;;13.70;53.90;;;;;;6158063;23;19904;-72
2022/09/11 14:44:40;;;;;;;;;;;13.70;53.80;;;;;;6158197;23;19912;-72
2022/09/11 14:47:10;;;;;;;;;;;13.70;53.90;;;;;;6183616;23;20308;-72
2022/09/11 14:49:36;;;;;;;;;;;13.70;54.10;;;;;;6157242;23;20332;-72
2022/09/11 14:52:03;;;;;;;;;;;13.70;53.90;;;;;;6183383;23;19939;-72
2022/09/11 14:54:32;;;;;;;;;;;13.70;53.70;;;;;;6183720;23;19904;-72
2022/09/11 14:56:59;;;;;;;;;;;13.60;53.90;;;;;;6182712;23;19904;-72
2022/09/11 14:59:27;;;;;;;;;;;13.60;53.90;;;;;;6157704;23;19995;-72
2022/09/11 15:01:57;;;;;;;;;;;13.70;54.10;;;;;;6158393;23;19908;-72
2022/09/11 15:04:23;;;;;;;;;;;13.60;53.60;;;;;;6184823;23;19971;-72
2022/09/11 15:06:51;;;;;;;;;;;13.60;54.00;;;;;;6183619;23;19911;-72
2022/09/11 15:09:17;;;;;;;;;;;13.60;53.90;;;;;;6157411;23;19935;-72
2022/09/11 15:11:44;;;;;;;;;;;13.50;53.50;;;;;;6184001;23;19904;-72
2022/09/11 15:14:13;;;;;;;;;;;13.50;54.00;;;;;;6183772;23;19967;-72
2022/09/11 15:16:41;;;;;;;;;;;13.50;53.90;;;;;;6183757;23;19980;-72
2022/09/11 15:19:08;;;;;;;;;;;13.50;53.90;;;;;;6184056;23;19904;-72
2022/09/11 15:21:34;;;;;;;;;;;13.50;54.00;;;;;;6182746;23;19931;-72
2022/09/11 15:24:04;;;;;;;;;;;13.40;54.30;;;;;;6181847;23;19944;-72
2022/09/11 15:26:31;;;;;;;;;;;13.40;54.00;;;;;;6182528;23;19932;-72
2022/09/11 15:28:57;;;;;;;;;;;13.40;54.20;;;;;;6157144;23;20216;-72
2022/09/11 15:31:24;;;;;;;;;;;13.40;54.60;;;;;;6182965;23;19908;-72
2022/09/11 15:33:51;;;;;;;;;;;13.40;54.20;;;;;;6157723;23;19904;-72
2022/09/11 15:36:17;;;;;;;;;;;13.40;54.10;;;;;;6156981;23;19911;-72
2022/09/11 15:38:50;;;;;;;;;;;13.30;54.70;;;;;;6183759;23;19947;-71
2022/09/11 15:41:20;;;;;;;;;;;13.30;54.60;;;;;;6183984;23;19975;-72
2022/09/11 15:43:49;;;;;;;;;;;13.30;54.70;;;;;;6183405;23;19957;-71
2022/09/11 15:46:16;;;;;;;;;;;13.20;54.30;;;;;;6157949;23;20243;-72
2022/09/11 15:48:43;;;;;;;;;;;13.30;54.70;;;;;;6183834;23;19904;-71
2022/09/11 15:51:10;;;;;;;;;;;13.30;54.40;;;;;;6183872;23;19908;-72
2022/09/11 15:53:37;;;;;;;;;;;13.30;54.40;;;;;;6157462;23;19911;-72
2022/09/11 15:56:10;;;;;;;;;;;13.30;54.50;;;;;;6182588;23;19979;-72
2022/09/11 15:58:38;;;;;;;;;;;13.20;54.70;;;;;;6157933;23;19911;-71
2022/09/11 16:01:05;;;;;;;;;;;13.20;54.90;;;;;;6157008;23;19920;-72
2022/09/11 16:03:32;;;;;;;;;;;13.20;55.20;;;;;;6183536;23;20323;-72
2022/09/11 16:06:01;;;;;;;;;;;13.20;54.90;;;;;;6157807;23;19909;-72
2022/09/11 16:08:28;;;;;;;;;;;13.10;55.20;;;;;;6157192;23;19959;-72
2022/09/11 16:10:54;;;;;;;;;;;13.10;55.30;;;;;;6182939;23;19913;-72
2022/09/11 16:13:21;;;;;;;;;;;13.10;55.30;;;;;;6183354;23;19904;-72
2022/09/11 16:15:48;;;;;;;;;;;13.10;55.60;;;;;;6183815;23;20327;-72
2022/09/11 16:18:17;;;;;;;;;;;13.10;55.50;;;;;;6183722;23;19951;-72
2022/09/11 16:20:44;;;;;;;;;;;13.10;55.60;;;;;;6183980;23;19905;-72
2022/09/11 16:23:11;;;;;;;;;;;13.00;55.70;;;;;;6159617;23;20374;-72
2022/09/11 16:25:38;;;;;;;;;;;13.10;55.70;;;;;;6185908;23;19908;-71
2022/09/11 16:28:07;;;;;;;;;;;13.00;55.70;;;;;;6185659;23;19915;-71
2022/09/11 16:30:40;;;;;;;;;;;13.00;55.90;;;;;;6185178;23;19909;-71
2022/09/11 16:33:09;;;;;;;;;;;13.00;55.60;;;;;;6185413;23;19982;-71
2022/09/11 16:35:38;;;;;;;;;;;13.00;56.50;;;;;;6185989;23;19908;-72
2022/09/11 16:38:08;;;;;;;;;;;12.90;56.30;;;;;;6182923;23;19912;-71
2022/09/11 16:40:35;;;;;;;;;;;12.80;56.50;;;;;;6184227;23;20282;-71
2022/09/11 16:43:02;;;;;;;;;;;12.80;56.60;;;;;;6184630;23;19955;-71
2022/09/11 16:45:28;;;;;;;;;;;12.80;56.90;;;;;;6158370;23;19975;-71
2022/09/11 16:47:56;;;;;;;;;;;12.80;56.80;;;;;;6184447;23;20332;-72
2022/09/11 16:50:23;;;;;;;;;;;12.80;57.30;;;;;;6185305;23;19904;-72
2022/09/11 16:52:49;;;;;;;;;;;12.70;57.00;;;;;;6158551;23;19908;-72
2022/09/11 16:55:16;;;;;;;;;;;12.70;56.90;;;;;;6184590;23;19904;-72
2022/09/11 16:57:45;;;;;;;;;;;12.70;56.90;;;;;;6184412;23;19911;-72
2022/09/11 17:00:13;;;;;;;;;;;12.70;57.30;;;;;;6184590;23;20019;-71
2022/09/11 17:02:39;;;;;;;;;;;12.70;57.90;;;;;;6159675;23;19908;-71
2022/09/11 17:05:07;;;;;;;;;;;12.60;57.80;;;;;;6185385;23;19912;-71
2022/09/11 17:07:34;;;;;;;;;;;12.60;58.20;;;;;;6157955;23;19905;-71
2022/09/11 17:10:01;;;;;;;;;;;12.50;58.60;;;;;;6184780;23;20315;-71
2022/09/11 17:12:27;;;;;;;;;;;12.50;58.60;;;;;;6185400;23;20239;-71
2022/09/11 17:14:54;;;;;;;;;;;12.50;58.70;;;;;;6184392;23;19910;-71
2022/09/11 17:17:22;;;;;;;;;;;12.40;58.80;;;;;;6184804;23;19912;-72
2022/09/11 17:19:50;;;;;;;;;;;12.40;59.30;;;;;;6184749;23;19983;-72
2022/09/11 17:22:16;;;;;;;;;;;12.40;59.80;;;;;;6184628;23;19932;-71
2022/09/11 17:24:43;;;;;;;;;;;12.30;60.60;;;;;;6158615;23;19916;-71
2022/09/11 17:27:10;;;;;;;;;;;12.30;60.70;;;;;;6184184;23;19905;-71
2022/09/11 17:29:36;;;;;;;;;;;12.20;61.80;;;;;;6185035;23;20271;-71
2022/09/11 17:32:03;;;;;;;;;;;12.20;61.80;;;;;;6184185;23;19966;-71
2022/09/11 17:34:29;;;;;;;;;;;12.20;61.60;;;;;;6184421;23;19904;-71
2022/09/11 17:36:56;;;;;;;;;;;12.20;61.90;;;;;;6184024;23;19908;-71
2022/09/11 17:39:23;;;;;;;;;;;12.10;61.60;;;;;;6183997;23;19938;-71
2022/09/11 17:41:49;;;;;;;;;;;12.10;61.20;;;;;;6158431;23;19971;-71
2022/09/11 17:44:16;;;;;;;;;;;12.10;61.10;;;;;;6184268;23;19913;-71
2022/09/11 17:46:42;;;;;;;;;;;12.10;60.60;;;;;;6184564;23;19911;-71
2022/09/11 17:49:09;;;;;;;;;;;12.10;60.70;;;;;;6184637;23;19912;-71
2022/09/11 17:51:35;;;;;;;;;;;12.10;61.20;;;;;;6183049;23;20352;-71
2022/09/11 17:54:02;;;;;;;;;;;12.10;60.80;;;;;;6184477;23;20279;-71
2022/09/11 17:56:32;;;;;;;;;;;12.10;60.60;;;;;;6184410;23;19921;-71
2022/09/11 17:58:59;;;;;;;;;;;12.10;60.50;;;;;;6184396;23;19919;-71
2022/09/11 18:01:26;;;;;;;;;;;12.10;60.30;;;;;;6184102;23;20318;-71
2022/09/11 18:03:53;;;;;;;;;;;12.00;60.80;;;;;;6183649;23;19995;-72
2022/09/11 18:06:20;;;;;;;;;;;12.00;60.70;;;;;;6184200;23;20217;-71
2022/09/11 18:08:46;;;;;;;;;;;11.90;60.60;;;;;;6184942;23;19911;-72
2022/09/11 18:11:13;;;;;;;;;;;12.00;60.90;;;;;;6184219;23;19905;-71
2022/09/11 18:13:41;;;;;;;;;;;12.00;60.60;;;;;;6183781;23;19911;-72
2022/09/11 18:16:08;;;;;;;;;;;12.00;60.60;;;;;;6184374;23;19981;-71
2022/09/11 18:18:34;;;;;;;;;;;12.00;62.20;;;;;;6184334;23;19987;-71
2022/09/11 18:21:07;;;;;;;;;;;11.90;61.30;;;;;;6183021;23;19904;-71
2022/09/11 18:23:41;;;;;;;;;;;11.90;61.30;;;;;;6183569;23;19917;-71
2022/09/11 18:26:09;;;;;;;;;;;11.90;60.60;;;;;;6158136;23;19908;-71
2022/09/11 18:28:36;;;;;;;;;;;11.90;60.50;;;;;;6184129;23;20316;-72
2022/09/11 18:31:05;;;;;;;;;;;11.90;60.20;;;;;;6183612;23;20351;-71
2022/09/11 18:33:32;;;;;;;;;;;11.90;60.30;;;;;;6183864;23;20208;-71
2022/09/11 18:36:03;;;;;;;;;;;11.90;60.40;;;;;;6183975;23;19984;-71
2022/09/11 18:38:30;;;;;;;;;;;11.90;60.50;;;;;;6184345;23;19940;-71
2022/09/11 18:40:57;;;;;;;;;;;11.90;60.70;;;;;;6182191;23;20235;-71
2022/09/11 18:43:25;;;;;;;;;;;11.90;60.50;;;;;;6183656;23;19916;-71
2022/09/11 18:45:51;;;;;;;;;;;11.80;61.00;;;;;;6183539;23;19998;-70
2022/09/11 18:48:18;;;;;;;;;;;11.80;61.10;;;;;;6183577;23;19911;-70
2022/09/11 18:50:45;;;;;;;;;;;11.70;61.30;;;;;;6183406;23;19909;-70
2022/09/11 18:53:12;;;;;;;;;;;11.80;61.30;;;;;;6181819;23;19912;-71
2022/09/11 18:55:38;;;;;;;;;;;11.80;60.90;;;;;;6157144;23;19991;-71
2022/09/11 18:58:05;;;;;;;;;;;11.70;60.80;;;;;;6184046;23;19911;-71
2022/09/11 19:00:31;;;;;;;;;;;11.80;61.50;;;;;;6156996;23;19947;-71
2022/09/11 19:02:58;;;;;;;;;;;11.70;61.20;;;;;;6181938;23;20373;-71
2022/09/11 19:05:25;;;;;;;;;;;11.70;61.20;;;;;;6156429;23;19908;-71
2022/09/11 19:07:51;;;;;;;;;;;11.70;61.60;;;;;;6182296;23;19904;-71
2022/09/11 19:10:18;;;;;;;;;;;11.70;61.10;;;;;;6183316;23;19904;-71
2022/09/11 19:12:46;;;;;;;;;;;11.70;60.80;;;;;;6182783;23;19908;-71
2022/09/11 19:15:12;;;;;;;;;;;11.70;61.00;;;;;;6157031;23;19904;-70
2022/09/11 19:17:39;;;;;;;;;;;11.70;61.10;;;;;;6184276;23;19943;-72
2022/09/11 19:20:11;;;;;;;;;;;11.70;60.90;;;;;;6183910;23;19909;-71
2022/09/11 19:22:38;;;;;;;;;;;11.60;61.70;;;;;;6158893;23;19995;-70
2022/09/11 19:25:06;;;;;;;;;;;11.60;61.60;;;;;;6183350;23;19919;-70
2022/09/11 19:27:33;;;;;;;;;;;11.60;61.40;;;;;;6183211;23;19904;-70
2022/09/11 19:29:59;;;;;;;;;;;11.60;62.00;;;;;;6183871;23;19911;-70
2022/09/11 19:32:26;;;;;;;;;;;11.60;61.40;;;;;;6183469;23;20216;-71
2022/09/11 19:34:53;;;;;;;;;;;11.60;61.20;;;;;;6182980;23;19905;-71
2022/09/11 19:37:20;;;;;;;;;;;11.50;60.70;;;;;;6183797;23;20338;-71
2022/09/11 19:39:49;;;;;;;;;;;11.60;61.10;;;;;;6183489;23;20355;-70
2022/09/11 19:42:15;;;;;;;;;;;11.60;61.50;;;;;;6183933;23;20375;-71
2022/09/11 19:44:43;;;;;;;;;;;11.60;60.40;;;;;;6156791;23;19920;-71
2022/09/11 19:47:09;;;;;;;;;;;11.70;59.50;;;;;;6183304;23;19995;-71
2022/09/11 19:49:36;;;;;;;;;;;11.70;59.50;;;;;;6183131;23;19951;-71
2022/09/11 19:52:03;;;;;;;;;;;11.70;59.50;;;;;;6183412;23;19908;-71
2022/09/11 19:54:29;;;;;;;;;;;11.70;58.90;;;;;;6183052;23;19908;-71
2022/09/11 19:56:56;;;;;;;;;;;11.80;58.30;;;;;;6184725;23;19904;-71
2022/09/11 19:59:22;;;;;;;;;;;11.80;58.10;;;;;;6186090;23;20213;-71
2022/09/11 20:01:49;;;;;;;;;;;11.80;58.20;;;;;;6186216;23;19934;-71
2022/09/11 20:04:17;;;;;;;;;;;11.80;58.30;;;;;;6185544;23;19923;-71
2022/09/11 20:06:44;;;;;;;;;;;11.80;58.40;;;;;;6185913;23;20339;-71
2022/09/11 20:09:11;;;;;;;;;;;11.80;58.50;;;;;;6185340;23;19911;-71
2022/09/11 20:11:37;;;;;;;;;;;11.70;58.20;;;;;;6185165;23;19916;-71
2022/09/11 20:14:05;;;;;;;;;;;11.70;58.10;;;;;;6185271;23;19908;-71
2022/09/11 21:29:59;;;;;;;;;;;12.70;53.10;;;;;;6155259;23;20387;-72
2022/09/11 21:32:26;;;;;;;;;;;12.70;52.90;;;;;;6153167;23;19913;-72
2022/09/11 21:34:52;;;;;;;;;;;12.70;53.30;;;;;;6152402;23;19905;-70
2022/09/11 21:37:20;;;;;;;;;;;12.80;52.40;;;;;;6154360;23;19928;-70
2022/09/11 21:39:46;;;;;;;;;;;12.90;52.60;;;;;;6154703;23;19911;-71
2022/09/11 21:42:13;;;;;;;;;;;12.80;51.90;;;;;;6154204;23;19909;-71
2022/09/11 21:44:40;;;;;;;;;;;12.90;52.50;;;;;;6152668;23;20279;-72
2022/09/11 21:47:06;;;;;;;;;;;12.90;51.90;;;;;;6128366;23;19908;-72
2022/09/11 21:49:33;;;;;;;;;;;13.00;52.20;;;;;;6154804;23;19905;-72
2022/09/11 21:52:00;;;;;;;;;;;13.00;51.80;;;;;;6154718;23;19904;-72
2022/09/11 21:54:26;;;;;;;;;;;13.10;51.80;;;;;;6154292;23;20273;-72
2022/09/11 21:56:53;;;;;;;;;;;13.10;51.60;;;;;;6154854;23;19904;-72
2022/09/11 21:59:19;;;;;;;;;;;13.20;51.30;;;;;;6154590;23;20272;-73
2022/09/11 22:01:46;;;;;;;;;;;13.20;51.30;;;;;;6154278;23;19908;-72
2022/09/11 22:04:12;;;;;;;;;;;13.20;50.80;;;;;;6153828;23;19943;-72
2022/09/11 22:06:39;;;;;;;;;;;13.20;50.70;;;;;;6155163;23;19912;-71
2022/09/11 22:09:06;;;;;;;;;;;13.30;50.70;;;;;;6155196;23;20260;-71
2022/09/11 22:11:32;;;;;;;;;;;13.30;50.60;;;;;;6153152;23;19979;-71
2022/09/11 22:13:59;;;;;;;;;;;13.30;50.00;;;;;;6151202;23;19939;-70
2022/09/11 22:16:25;;;;;;;;;;;13.40;51.10;;;;;;6127667;23;19905;-71
2022/09/11 22:18:52;;;;;;;;;;;13.40;50.50;;;;;;6151360;23;19908;-71
2022/09/11 22:21:19;;;;;;;;;;;13.40;50.10;;;;;;6127331;23;19905;-72
2022/09/11 22:23:45;;;;;;;;;;;13.50;50.30;;;;;;6126670;23;20340;-72
2022/09/11 22:26:14;;;;;;;;;;;13.50;49.90;;;;;;6127257;23;19908;-72
